Tiempo atmosférico en la estación meteorológica de Carcaixent, València/Valencia (25 m.)



Fecha
DESCASC
Temp. máxima en grados centígrados (hora)
DESCASC
Temp. mínima en grados centígrados (hora)
DESCASC
Temp. media en grados centígrados
DESCASC
Racha de viento máxima en m/sg (hora)
DESCASC
Velocidad máxima media en intervalos de 10 minutos(hora)
DESCASC
Precipitaciones diarias en mm
DESCASC
Precipitaciones de 00:00 a 06:00 en mm
DESCASC
Precipitaciones de 06:00 a 12:00 en mm
DESCASC
Precipitaciones de 12:00 a 18:00 en mm
DESCASC
Precipitaciones de 18:00 a 24:00 en mm
DESCASC
18-01-2018 18.4 (15:40) 3 (03:10) 10.7 4.44 (08:30) 2.5 (08:40) 0 0 0 0 0
17-01-2018 23.1 (16:10) 6 (23:59) 14.6 6.94 (08:30) 3.33 (01:10) 0 0 0 0 0
16-01-2018 21.7 (16:00) 7.2 (06:10) 14.5 9.72 (13:00) 5.28 (13:00) 0 0 0 0 0
15-01-2018 16.5 (15:30) 2.7 (08:50) 9.6 5 (23:00) 3.06 (23:10) 0 0 0 0 0
14-01-2018 15.2 (14:30) 4.4 (00:00) 9.8 10.28 (03:20) 5.56 (03:20) 0 0 0 0 0
13-01-2018 14.9 (17:00) 3.8 (00:00) 9.3 4.17 (07:30) 2.5 (07:30) 0 0 0 0 0
12-01-2018 17.4 (16:30) 3.1 (00:00) 10.2 10 (02:50) 6.11 (03:00) 0 0 0 0 0
11-01-2018 15.5 (15:20) 8.2 (00:00) 11.8 16.39 (06:50) 8.33 (15:10) 0 0 0 0 0
10-01-2018 16.9 (14:50) 7.5 (00:00) 12.2 13.06 (17:50) 7.5 (15:20) 1.8 1.8 0 0 0
09-01-2018 15.7 (15:00) 2.9 (00:00) 9.3 8.61 (16:30) 5 (16:30) 0.2 0 0 0 0.2
08-01-2018 15.4 (15:50) 1.7 (00:00) 8.5 4.72 (18:30) 3.33 (23:59) 0 0 0 0 0
07-01-2018 14.6 (14:30) 3.5 (00:00) 9.1 6.39 (15:20) 3.89 (15:20) 0 0 0 0 0
06-01-2018 15.2 (13:50) 4.7 (00:00) 9.9 5.83 (18:30) 3.61 (02:30) 1.6 0 0 0 1.6
05-01-2018 20.7 (13:40) 9.2 (00:00) 15 9.72 (13:20) 5.28 (14:00) 0 0 0 0 0
04-01-2018 21.5 (13:40) 13.6 (03:30) 17.6 10.56 (13:50) 6.39 (12:20) 0 0 0 0 0
03-01-2018 20.8 (15:30) 12.5 (00:00) 16.6 8.89 (00:50) 4.72 (03:10) 0 0 0 0 0
02-01-2018 20.2 (16:00) 10.4 (00:00) 15.3 9.44 (13:00) 5 (13:30) 0 0 0 0 0
01-01-2018 20 (13:50) 8.2 (00:00) 14.1 12.22 (19:10) 6.39 (16:00) 0 0 0 0 0
31-12-2017 20 (14:50) 6.2 (00:00) 13.1 14.17 (22:50) 8.33 (22:30) 0 0 0 0 0
30-12-2017 22.5 (14:20) 9.7 (00:00) 16.1 10.56 (12:30) 6.11 (13:10) 0 0 0 0 0
29-12-2017 21.9 (15:20) 9.9 (00:00) 15.9 13.89 (11:30) 6.94 (14:30) 0 0 0 0 0
28-12-2017 20.9 (14:00) 11.1 (00:00) 16 14.17 (15:00) 7.78 (13:30) 0 0 0 0 0
27-12-2017 17.8 (13:20) 10.9 (00:00) 14.3 18.61 (05:30) 10.28 (14:50) 0 0 0 0 0
26-12-2017 17.5 (13:40) 7.4 (00:00) 12.5 11.94 (14:50) 6.39 (14:50) 0 0 0 0 0
25-12-2017 17.5 (15:20) 4.7 (00:00) 11.1 8.33 (17:30) 3.89 (10:20) 0 0 0 0 0
24-12-2017 19.4 (14:40) 4 (00:00) 11.7 6.39 (14:10) 3.61 (15:20) 0 0 0 0 0

Gráficas

Temp. máximas Temp. mínimas Temp. medias Precipitaciones Rachas de viento máximas Velocidades máximas media en intervalos de 10 minutos

Datos horarios

Fecha y hora oficial Temperatura (ºC) Velocidad del viento (km/h) Dirección del viento Racha (km/h) Dirección de racha Precipitación (mm) Presión (hPa) Tendencia (hPa) Humedad (%)
2018-01-22 23:00:00 12.3 8 Sur 12 Sur 0 -- -- 59
2018-01-22 22:00:00 12.7 9 Sur 11 Sur 0 -- -- 61
2018-01-22 21:00:00 13.1 3 Sur 11 Sur 0 -- -- 62
2018-01-22 20:00:00 13.9 7 Sur 10 Sur 0 -- -- 61
2018-01-22 19:00:00 15.3 6 Sur 9 Sudeste 0 -- -- 59
2018-01-22 18:00:00 21.6 4 Sudoeste 10 Oeste 0 -- -- 44
2018-01-22 17:00:00 25.6 5 Oeste 13 Oeste 0 -- -- 31
2018-01-22 16:00:00 26.1 10 Oeste 27 Oeste 0 -- -- 32
2018-01-22 15:00:00 25.5 14 Oeste 23 Oeste 0 -- -- 33
2018-01-22 14:00:00 24.6 12 Oeste 24 Oeste 0 -- -- 35
2018-01-22 13:00:00 23 7 Oeste 16 Oeste 0 -- -- 38
2018-01-22 12:00:00 21 7 Sudoeste 16 Sur 0 -- -- 44
2018-01-22 11:00:00 17.4 9 Sudoeste 15 Sur 0 -- -- 54
2018-01-22 10:00:00 14.7 10 Sur 16 Sur 0 -- -- 62
2018-01-22 09:00:00 10.6 9 Sur 13 Sur 0 -- -- 76
2018-01-22 08:00:00 9 8 Sur 11 Sur 0 -- -- 80
2018-01-22 07:00:00 9.8 8 Sur 13 Sur 0 -- -- 77
2018-01-22 06:00:00 10.3 8 Sur 13 Sur 0 -- -- 76
2018-01-22 05:00:00 10.6 9 Sur 14 Sur 0 -- -- 75
2018-01-22 04:00:00 11.6 10 Sur 21 Sur 0 -- -- 72
2018-01-22 03:00:00 12.2 9 Sur 18 Sur 0 -- -- 70
2018-01-22 02:00:00 11.9 9 Sur 14 Sur 0 -- -- 72
2018-01-22 01:00:00 12.2 8 Sur 13 Sur 0 -- -- 71
2018-01-22 00:00:00 13.3 8 Sur 12 Sur 0 -- -- 67
2018-01-21 23:00:00 14.3 9 Sur 14 Sudeste 0 -- -- 64
2018-01-21 22:00:00 14.4 8 Sur 15 Sur 0 -- -- 63
2018-01-21 21:00:00 14.2 9 Sur 13 Sur 0 -- -- 65
2018-01-21 20:00:00 14.6 5 Sur 14 Sur 0 -- -- 63
2018-01-21 19:00:00 17.7 4 Sudeste 12 Sudeste 0 -- -- 55
2018-01-21 18:00:00 22 4 Sudoeste 18 Noroeste 0 -- -- 43
2018-01-21 17:00:00 24.6 10 Oeste 24 Oeste 0 -- -- 38
2018-01-21 16:00:00 25.4 12 Oeste 26 Oeste 0 -- -- 37
2018-01-21 15:00:00 25.2 12 Oeste 25 Sudoeste 0 -- -- 37
2018-01-21 14:00:00 24.1 10 Oeste 28 Oeste 0 -- -- 38
2018-01-21 13:00:00 22.3 17 Oeste 31 Oeste 0 -- -- 40
2018-01-21 12:00:00 20.9 14 Oeste 26 Oeste 0 -- -- 42
2018-01-21 11:00:00 19.6 8 Oeste 22 Oeste 0 -- -- 45
2018-01-21 10:00:00 17 10 Oeste 25 Oeste 0 -- -- 51
2018-01-21 09:00:00 12.8 4 Sur 19 Sudoeste 0 -- -- 61
2018-01-21 08:00:00 11.4 10 Sur 18 Sur 0 -- -- 63
2018-01-21 07:00:00 11.8 11 Sur 21 Sur 0 -- -- 60
2018-01-21 06:00:00 11 9 Sur 15 Sudeste 0 -- -- 62
2018-01-21 05:00:00 11.2 4 Sudoeste 13 Sur 0 -- -- 60
2018-01-21 04:00:00 12.9 8 Sudoeste 17 Sudoeste 0 -- -- 54
2018-01-21 03:00:00 13.1 9 Sur 19 Sur 0 -- -- 52
2018-01-21 02:00:00 12.8 7 Sur 18 Sudeste 0 -- -- 51
2018-01-21 01:00:00 14.5 7 Sur 15 Sur 0 -- -- 44
2018-01-21 00:00:00 15.5 9 Oeste 28 Oeste 0 -- -- 41
2018-01-20 23:00:00 15.3 11 Oeste 22 Oeste 0 -- -- 39
2018-01-20 22:00:00 16.1 10 Oeste 26 Oeste 0 -- -- 37
2018-01-20 21:00:00 16.9 8 Sudoeste 26 Sudoeste 0 -- -- 34
2018-01-20 20:00:00 14.8 10 Sur 21 Sur 0 -- -- 41
2018-01-20 19:00:00 16.4 8 Sudoeste 19 Sudoeste 0 -- -- 37
2018-01-20 18:00:00 18.3 8 Sudoeste 23 Sudoeste 0 -- -- 35
2018-01-20 17:00:00 20.9 15 Oeste 35 Oeste 0 -- -- 32
2018-01-20 16:00:00 22.3 16 Oeste 27 Oeste 0 -- -- 32
2018-01-20 15:00:00 21.2 14 Oeste 32 Oeste 0 -- -- 36
2018-01-20 14:00:00 20.6 19 Noroeste 35 Oeste 0 -- -- 35
2018-01-20 13:00:00 20.1 12 Oeste 21 Sudoeste 0 -- -- 35
2018-01-20 12:00:00 18.1 9 Oeste 23 Sudoeste 0 -- -- 44
2018-01-20 11:00:00 14.3 13 Sur 21 Sur 0 -- -- 53
2018-01-20 10:00:00 9.4 9 Sur 15 Sur 0 -- -- 67
2018-01-20 09:00:00 6.2 7 Sur 13 Sur 0 -- -- 82
2018-01-20 08:00:00 5.3 5 Sur 14 Sudeste 0 -- -- 82
2018-01-20 07:00:00 6.2 4 Sudoeste 19 Sudoeste 0 -- -- 78
2018-01-20 06:00:00 5 8 Sur 14 Sur 0 -- -- 85
2018-01-20 05:00:00 6.3 4 Sur 12 Sur 0 -- -- 80
2018-01-20 04:00:00 6.5 9 Sur 17 Sur 0 -- -- 81
2018-01-20 03:00:00 5.6 4 Sur 12 Sudeste 0 -- -- 81
2018-01-20 02:00:00 7.2 9 Sudeste 13 Sudeste 0 -- -- 79
2018-01-20 01:00:00 5.4 4 Sur 11 Sur 0 -- -- 84
2018-01-20 00:00:00 5.7 5 Sudeste 10 Sur 0 -- -- 85
2018-01-19 23:00:00 5.6 3 Sudoeste 10 Sudeste 0 -- -- 85
2018-01-19 22:00:00 5.4 5 Sur 9 Sudeste 0 -- -- 86
2018-01-19 21:00:00 6.8 3 Sudoeste 5 Sudoeste 0 -- -- 80
2018-01-19 20:00:00 8.6 4 Nordeste 9 Nordeste 0 -- -- 75
2018-01-19 19:00:00 11.4 4 Sudoeste 10 Sur 0 -- -- 65
2018-01-19 18:00:00 15.7 5 Sur 13 Sur 0 -- -- 54
2018-01-19 17:00:00 18 6 Sur 11 Sur 0 -- -- 49
2018-01-19 16:00:00 17.5 5 Sur 10 Sur 0 -- -- 48
2018-01-19 15:00:00 17.9 5 Sur 12 Noroeste 0 -- -- 46
2018-01-19 14:00:00 16.1 6 Sur 10 Sur 0 -- -- 52
2018-01-19 13:00:00 15.1 4 Sur 9 Sur 0 -- -- 56
2018-01-19 12:00:00 14 7 Sur 17 Sur 0 -- -- 60
2018-01-19 11:00:00 12.4 12 Sur 17 Sur 0 -- -- 66
2018-01-19 10:00:00 8.6 6 Sur 9 Sur 0 -- -- 89
2018-01-19 09:00:00 7.1 4 Sur 10 Sur 0 -- -- 88
2018-01-19 08:00:00 7 5 Sur 11 Sur 0 -- -- 90
2018-01-19 07:00:00 7.2 6 Sur 13 Sur 0 -- -- 89
2018-01-19 06:00:00 7.6 8 Sur 14 Sur 0 -- -- 89
2018-01-19 05:00:00 7.5 6 Sur 14 Sur 0 -- -- 92
2018-01-19 04:00:00 6.9 7 Sur 10 Sur 0 -- -- 94
2018-01-19 03:00:00 6.6 8 Sur 12 Sur 0 -- -- 95
2018-01-19 02:00:00 5.5 0 Calma 8 Sudoeste 0 -- -- 93
2018-01-19 01:00:00 5.6 2 Sudoeste 5 Sudoeste 0 -- -- 93
2018-01-19 00:00:00 5.6 3 Sur 5 Sur 0 -- -- 92
2018-01-18 23:00:00 5.8 0 Calma 5 Sur 0 -- -- 91
2018-01-18 22:00:00 5.9 0 Calma 5 Sur 0 -- -- 88
2018-01-18 21:00:00 6.8 0 Calma 4 Sur 0 -- -- 85
2018-01-18 20:00:00 8.3 2 Sur 8 Sudoeste 0 -- -- 84
2018-01-18 19:00:00 10.7 3 Sur 6 Nordeste 0 -- -- 75
2018-01-18 18:00:00 14.7 4 Norte 8 Nordeste 0 -- -- 64
2018-01-18 17:00:00 17.4 5 Nordeste 11 Nordeste 0 -- -- 57
2018-01-18 16:00:00 18.2 6 Norte 13 Norte 0 -- -- 53
2018-01-18 15:00:00 18.1 5 Norte 15 Norte 0 -- -- 54
2018-01-18 14:00:00 16.9 4 Noroeste 11 Norte 0 -- -- 57
2018-01-18 13:00:00 15.9 3 Nordeste 9 Noroeste 0 -- -- 60
2018-01-18 12:00:00 14.1 3 Sur 12 Sur 0 -- -- 62
2018-01-18 11:00:00 11.5 6 Sudoeste 13 Sur 0 -- -- 67
2018-01-18 10:00:00 8.9 8 Sur 12 Sur 0 -- -- 76
2018-01-18 09:00:00 5.4 8 Sur 16 Sur 0 -- -- 88
2018-01-18 08:00:00 4.8 8 Sur 13 Sur 0 -- -- 87
2018-01-18 07:00:00 4.3 8 Sur 12 Sudeste 0 -- -- 89
2018-01-18 06:00:00 4.6 6 Sur 10 Sudeste 0 -- -- 88
2018-01-18 05:00:00 4.3 7 Sur 12 Sur 0 -- -- 92
2018-01-18 04:00:00 3.4 2 Sur 6 Sur 0 -- -- 90
2018-01-18 03:00:00 3.3 4 Sur 6 Sur 0 -- -- 89
2018-01-18 02:00:00 4.6 4 Sur 8 Sudeste 0 -- -- 87
2018-01-18 01:00:00 5.3 4 Sur 8 Sudeste 0 -- -- 87
2018-01-18 00:00:00 6 2 Sudeste 9 Este 0 -- -- 85
2018-01-17 23:00:00 6.5 2 Nordeste 10 Sur 0 -- -- 84
2018-01-17 22:00:00 7.3 3 Sur 9 Oeste 0 -- -- 81
2018-01-17 21:00:00 7.7 3 Sudeste 13 Nordeste 0 -- -- 78
2018-01-17 20:00:00 9.1 0 Calma 8 Sur 0 -- -- 73
2018-01-17 19:00:00 12.8 3 Sur 9 Nordeste 0 -- -- 63
2018-01-17 18:00:00 18.4 2 Sudoeste 6 Oeste 0 -- -- 51
2018-01-17 17:00:00 22.6 3 Sudoeste 9 Noroeste 0 -- -- 34
2018-01-17 16:00:00 23 4 Sudoeste 16 Oeste 0 -- -- 34
2018-01-17 15:00:00 22.2 5 Oeste 13 Oeste 0 -- -- 36
2018-01-17 14:00:00 21.2 6 Noroeste 15 Oeste 0 -- -- 37
2018-01-17 13:00:00 20.1 6 Sudoeste 19 Oeste 0 -- -- 39
2018-01-17 12:00:00 18.6 9 Sudoeste 18 Sudoeste 0 -- -- 45
2018-01-17 11:00:00 16.4 10 Sur 20 Sur 0 -- -- 52
2018-01-17 10:00:00 14 9 Sur 20 Sudoeste 0 -- -- 59
2018-01-17 09:00:00 11.5 5 Sudoeste 25 Oeste 0 -- -- 68
2018-01-17 08:00:00 9.4 10 Sudoeste 22 Sudeste 0 -- -- 75
2018-01-17 07:00:00 8.9 5 Sur 13 Sur 0 -- -- 76
2018-01-17 06:00:00 10.3 5 Sudoeste 19 Sudoeste 0 -- -- 71
2018-01-17 05:00:00 9.9 11 Sur 18 Sur 0 -- -- 74
2018-01-17 04:00:00 12.2 8 Oeste 22 Oeste 0 -- -- 66
2018-01-17 03:00:00 12 7 Sur 18 Sudoeste 0 -- -- 65
2018-01-17 02:00:00 12.4 7 Sur 24 Sudoeste 0 -- -- 64
2018-01-17 01:00:00 13.6 11 Sudoeste 18 Sudoeste 0 -- -- 60
2018-01-17 00:00:00 14.4 10 Sudoeste 23 Sudoeste 0 -- -- 57
2018-01-16 23:00:00 14.3 8 Sur 29 Oeste 0 -- -- 57
2018-01-16 22:00:00 14.7 12 Sudoeste 25 Oeste 0 -- -- 58
2018-01-16 21:00:00 14.2 11 Sudoeste 22 Sudoeste 0 -- -- 60
2018-01-16 20:00:00 13.1 6 Sur 16 Sudoeste 0 -- -- 63
2018-01-16 19:00:00 15.1 4 Sudoeste 17 Oeste 0 -- -- 56
2018-01-16 18:00:00 18 9 Oeste 24 Oeste 0 -- -- 47
2018-01-16 17:00:00 20.9 11 Oeste 26 Oeste 0 -- -- 41
2018-01-16 16:00:00 21.7 13 Oeste 27 Sudoeste 0 -- -- 39
2018-01-16 15:00:00 21.3 18 Oeste 35 Oeste 0 -- -- 39
2018-01-16 14:00:00 20.6 14 Oeste 30 Oeste 0 -- -- 39
2018-01-16 13:00:00 19.1 19 Oeste 35 Oeste 0 -- -- 41
2018-01-16 12:00:00 17.3 18 Oeste 32 Sudoeste 0 -- -- 44
2018-01-16 11:00:00 15.4 13 Sudoeste 27 Sudoeste 0 -- -- 43
2018-01-16 10:00:00 12.2 13 Sur 22 Sur 0 -- -- 52
2018-01-16 09:00:00 9.8 15 Sur 26 Sur 0 -- -- 58
2018-01-16 08:00:00 8.7 6 Sudoeste 21 Sudoeste 0 -- -- 61
2018-01-16 07:00:00 9.1 9 Sudoeste 24 Oeste 0 -- -- 59
2018-01-16 06:00:00 7.5 9 Sur 19 Sudoeste 0 -- -- 65
2018-01-16 05:00:00 8.2 12 Sur 23 Sur 0 -- -- 62
2018-01-16 04:00:00 8.3 12 Sur 24 Sur 0 -- -- 62
2018-01-16 03:00:00 8.4 13 Sur 25 Sur 0 -- -- 62
2018-01-16 02:00:00 8.3 12 Sur 23 Sur 0 -- -- 65
2018-01-16 01:00:00 8.6 13 Sur 20 Sudoeste 0 -- -- 65
2018-01-16 00:00:00 8.1 10 Sur 17 Sur 0 -- -- 67
2018-01-15 23:00:00 8.5 10 Sur 18 Sur 0 -- -- 64
2018-01-15 22:00:00 8.4 9 Sur 16 Sur 0 -- -- 63
2018-01-15 21:00:00 8 10 Sur 14 Sur 0 -- -- 68
2018-01-15 20:00:00 7.3 4 Sur 8 Sudeste 0 -- -- 73
2018-01-15 19:00:00 9.3 4 Sur 8 Sur 0 -- -- 65
2018-01-15 18:00:00 13 5 Sur 12 Sur 0 -- -- 54
2018-01-15 17:00:00 15.7 5 Sur 14 Sur 0 -- -- 43
2018-01-15 16:00:00 16.4 4 Sudoeste 14 Sur 0 -- -- 41
2018-01-15 15:00:00 16.2 4 Sur 14 Oeste 0 -- -- 42
2018-01-15 14:00:00 15.4 5 Oeste 12 Noroeste 0 -- -- 44
2018-01-15 13:00:00 14.3 5 Noroeste 10 Noroeste 0 -- -- 47
2018-01-15 12:00:00 13.3 3 Sur 11 Sur 0 -- -- 53
2018-01-15 11:00:00 11.2 6 Sudoeste 14 Sur 0 -- -- 62
2018-01-15 10:00:00 7.9 6 Sudoeste 10 Sur 0 -- -- 77
2018-01-15 09:00:00 3 3 Sur 6 Sudoeste 0 -- -- 92
2018-01-15 08:00:00 3.9 3 Sur 5 Sudeste 0 -- -- 90
2018-01-15 07:00:00 4.2 3 Sudoeste 8 Sur 0 -- -- 91
2018-01-15 06:00:00 3.4 3 Sur 5 Sudeste 0 -- -- 90
2018-01-15 05:00:00 3.9 0 Calma 4 Sudeste 0 -- -- 88
2018-01-15 04:00:00 4.8 0 Calma 5 Sur 0 -- -- 89
2018-01-15 03:00:00 4.8 0 Calma 4 Sur 0 -- -- 88
2018-01-15 02:00:00 4.7 0 Calma 5 Sudeste 0 -- -- 88
2018-01-15 01:00:00 4.6 0 Calma 6 Sur 0 -- -- 88
2018-01-15 00:00:00 4.7 3 Sudoeste 5 Sudoeste 0 -- -- 87
2018-01-14 23:00:00 4.7 0 Calma 6 Sur 0 -- -- 86
2018-01-14 22:00:00 4.5 3 Sur 6 Sur 0 -- -- 84
2018-01-14 21:00:00 4.9 4 Sur 6 Sudeste 0 -- -- 84
2018-01-14 20:00:00 6 0 Calma 6 Sudoeste 0 -- -- 77
2018-01-14 19:00:00 7.7 5 Sudeste 8 Sudeste 0 -- -- 73
2018-01-14 18:00:00 10.6 3 Sudeste 8 Oeste 0 -- -- 64
2018-01-14 17:00:00 13.2 5 Oeste 19 Oeste 0 -- -- 50
2018-01-14 16:00:00 14.2 9 Oeste 24 Oeste 0 -- -- 48
2018-01-14 15:00:00 15 14 Oeste 27 Oeste 0 -- -- 48
2018-01-14 14:00:00 14.9 14 Noroeste 26 Noroeste 0 -- -- 50
2018-01-14 13:00:00 13.4 12 Sudoeste 23 Sudoeste 0 -- -- 54
2018-01-14 12:00:00 11.9 7 Sudoeste 14 Oeste 0 -- -- 56
2018-01-14 11:00:00 10.3 3 Sur 14 Sur 0 -- -- 63
2018-01-14 10:00:00 9 6 Sur 11 Oeste 0 -- -- 67
2018-01-14 09:00:00 9.6 5 Noroeste 27 Oeste 0 -- -- 64
2018-01-14 08:00:00 8.9 8 Este 30 Oeste 0 -- -- 64
2018-01-14 07:00:00 8.3 12 Oeste 27 Sudoeste 0 -- -- 66
2018-01-14 06:00:00 8.6 10 Sudoeste 25 Oeste 0 -- -- 64
2018-01-14 05:00:00 8.9 9 Oeste 25 Oeste 0 -- -- 63
2018-01-14 04:00:00 9.6 13 Oeste 37 Oeste 0 -- -- 61
2018-01-14 03:00:00 10.3 10 Noroeste 36 Noroeste 0 -- -- 62
2018-01-14 02:00:00 10.1 4 Oeste 21 Oeste 0 -- -- 67
2018-01-14 01:00:00 8 7 Oeste 14 Oeste 0 -- -- 77
2018-01-14 00:00:00 6.2 0 Calma 9 Noroeste 0 -- -- 77
2018-01-13 23:00:00 8 7 Sur 14 Sur 0 -- -- 73
2018-01-13 22:00:00 8.6 5 Sur 9 Sur 0 -- -- 74
2018-01-13 21:00:00 9.9 2 Sudeste 10 Sur 0 -- -- 71
2018-01-13 20:00:00 9.4 5 Sudoeste 9 Sudeste 0 -- -- 72
2018-01-13 19:00:00 9.3 3 Sur 6 Sudeste 0 -- -- 74
2018-01-13 18:00:00 11.5 3 Norte 6 Norte 0 -- -- 63
2018-01-13 17:00:00 14.9 2 Noroeste 7 Norte 0 -- -- 49
2018-01-13 16:00:00 13.8 4 Noroeste 10 Nordeste 0 -- -- 53
2018-01-13 15:00:00 13.6 8 Norte 12 Norte 0 -- -- 48
2018-01-13 14:00:00 13.7 4 Sur 11 Sudeste 0 -- -- 45
2018-01-13 13:00:00 13.6 6 Sudoeste 11 Sur 0 -- -- 45
2018-01-13 12:00:00 10.2 6 Sur 13 Sur 0 -- -- 55
2018-01-13 11:00:00 8.8 8 Sur 14 Sur 0 -- -- 57
2018-01-13 10:00:00 6.5 4 Sur 12 Sur 0 -- -- 68
2018-01-13 09:00:00 5.7 6 Sur 13 Sur 0 -- -- 67
2018-01-13 08:00:00 5.2 6 Sur 15 Sudeste 0 -- -- 70
2018-01-13 07:00:00 5.3 8 Sur 12 Sur 0 -- -- 72
2018-01-13 06:00:00 3.8 4 Sur 7 Sur 0 -- -- 77
2018-01-13 05:00:00 5.6 5 Sur 13 Sur 0 -- -- 71
2018-01-13 04:00:00 5.3 6 Sur 10 Sur 0 -- -- 74
2018-01-13 03:00:00 6.9 5 Sur 13 Sur 0 -- -- 67
2018-01-13 02:00:00 6.9 6 Sur 13 Sur 0 -- -- 69
2018-01-13 01:00:00 6.9 7 Sur 12 Sur 0 -- -- 68
2018-01-13 00:00:00 7 7 Sur 12 Sur 0 -- -- 68
2018-01-12 23:00:00 7.4 10 Sur 15 Sur 0 -- -- 67
2018-01-12 22:00:00 6.7 7 Sur 12 Sur 0 -- -- 69
2018-01-12 21:00:00 7.1 8 Sur 12 Sur 0 -- -- 69
2018-01-12 20:00:00 7.4 5 Sur 10 Sudeste 0 -- -- 70
2018-01-12 19:00:00 7.7 4 Sur 8 Sudeste 0 -- -- 69
2018-01-12 18:00:00 12.1 3 Oeste 9 Oeste 0 -- -- 55
2018-01-12 17:00:00 17.1 4 Sudoeste 14 Noroeste 0 -- -- 33
2018-01-12 16:00:00 17.2 8 Noroeste 24 Oeste 0 -- -- 34
2018-01-12 15:00:00 17 16 Oeste 31 Noroeste 0 -- -- 35
2018-01-12 14:00:00 17.1 8 Sudoeste 18 Oeste 0 -- -- 37
2018-01-12 13:00:00 15.5 8 Sudoeste 17 Oeste 0 -- -- 40
2018-01-12 12:00:00 13.6 8 Sur 21 Sur 0 -- -- 45
2018-01-12 11:00:00 11.4 12 Sur 21 Sur 0 -- -- 49
2018-01-12 10:00:00 9 9 Sur 17 Sur 0 -- -- 58
2018-01-12 09:00:00 3.7 5 Sur 9 Sur 0 -- -- 78
2018-01-12 08:00:00 3.6 4 Sur 11 Sur 0 -- -- 74
2018-01-12 07:00:00 4.8 8 Sur 15 Sur 0 -- -- 70
2018-01-12 06:00:00 4.3 5 Sur 9 Sur 0 -- -- 71
2018-01-12 05:00:00 6.3 3 Sur 18 Noroeste 0 -- -- 64
2018-01-12 04:00:00 8.3 9 Oeste 36 Noroeste 0 -- -- 55
2018-01-12 03:00:00 9.3 22 Oeste 36 Oeste 0 -- -- 52
2018-01-12 02:00:00 8.8 4 Sur 24 Oeste 0 -- -- 54
2018-01-12 01:00:00 10.1 6 Sudoeste 17 Oeste 0 -- -- 48
2018-01-12 00:00:00 9.8 8 Oeste 21 Oeste 0 -- -- 50
2018-01-11 23:00:00 8.3 6 Sudoeste 19 Oeste 0 -- -- 55
2018-01-11 22:00:00 9.6 5 Sudoeste 17 Oeste 0 -- -- 50
2018-01-11 21:00:00 10.2 7 Oeste 19 Noroeste 0 -- -- 49
2018-01-11 20:00:00 10.8 12 Oeste 26 Noroeste 0 -- -- 49
2018-01-11 19:00:00 11.1 6 Oeste 25 Oeste 0 -- -- 46
2018-01-11 18:00:00 12.7 15 Noroeste 36 Noroeste 0 -- -- 42
2018-01-11 17:00:00 14.8 19 Noroeste 37 Oeste 0 -- -- 38
2018-01-11 16:00:00 15.2 26 Noroeste 53 Oeste 0 -- -- 38
2018-01-11 15:00:00 15.2 28 Noroeste 47 Noroeste 0 -- -- 42
2018-01-11 14:00:00 14.9 25 Noroeste 50 Noroeste 0 -- -- 44
2018-01-11 13:00:00 13.9 22 Noroeste 46 Noroeste 0 -- -- 46
2018-01-11 12:00:00 13.6 19 Noroeste 43 Oeste 0 -- -- 49
2018-01-11 11:00:00 12.8 18 Oeste 40 Oeste 0 -- -- 53
2018-01-11 10:00:00 10.9 8 Noroeste 30 Oeste 0 -- -- 58
2018-01-11 09:00:00 9.8 12 Sudoeste 31 Oeste 0 -- -- 58
2018-01-11 08:00:00 9.1 8 Oeste 32 Noroeste 0 -- -- 61
2018-01-11 07:00:00 10.5 26 Oeste 59 Oeste 0 -- -- 56
2018-01-11 06:00:00 9.4 17 Oeste 32 Oeste 0 -- -- 55
2018-01-11 05:00:00 9.7 10 Oeste 33 Noroeste 0 -- -- 53
2018-01-11 04:00:00 10.1 7 Sudoeste 25 Sudoeste 0 -- -- 52
2018-01-11 03:00:00 10.1 9 Sur 25 Sudoeste 0 -- -- 58
2018-01-11 02:00:00 11 12 Sudoeste 28 Sudoeste 0 -- -- 59
2018-01-11 01:00:00 11.8 15 Oeste 31 Oeste 0 -- -- 61
2018-01-11 00:00:00 12.2 11 Sudoeste 26 Sudoeste 0 -- -- 65
2018-01-10 23:00:00 13.2 10 Oeste 31 Oeste 0 -- -- 62
2018-01-10 22:00:00 11.6 6 Oeste 36 Oeste 0 -- -- 65
2018-01-10 21:00:00 10.6 4 Sur 17 Oeste 0 -- -- 67
2018-01-10 20:00:00 12.9 8 Oeste 33 Noroeste 0 -- -- 56
2018-01-10 19:00:00 14.2 14 Oeste 34 Oeste 0 -- -- 52
2018-01-10 18:00:00 14.3 18 Oeste 47 Oeste 0 -- -- 57
2018-01-10 17:00:00 15.9 11 Oeste 27 Noroeste 0 -- -- 54
2018-01-10 16:00:00 15.1 13 Noroeste 45 Noroeste 0 -- -- 57
2018-01-10 15:00:00 16.8 21 Oeste 42 Oeste 0 -- -- 52
2018-01-10 14:00:00 16.2 21 Oeste 41 Noroeste 0 -- -- 55
2018-01-10 13:00:00 15.7 21 Noroeste 42 Oeste 0 -- -- 60
2018-01-10 12:00:00 15.2 12 Oeste 29 Oeste 0 -- -- 64
2018-01-10 11:00:00 13.8 7 Sudoeste 20 Sudoeste 0 -- -- 71
2018-01-10 10:00:00 11.6 12 Sur 20 Sur 0 -- -- 77
2018-01-10 09:00:00 9.1 6 Sur 13 Sur 0 -- -- 86
2018-01-10 08:00:00 9 9 Sur 15 Sur 0 -- -- 86
2018-01-10 07:00:00 9.1 11 Sur 20 Sudeste 0 -- -- 83
2018-01-10 06:00:00 8.5 14 Sur 21 Sur 0 -- -- 87
2018-01-10 05:00:00 7.9 10 Sur 14 Sur 0.2 -- -- 89
2018-01-10 04:00:00 7.8 6 Sur 13 Sur 0 -- -- 90
2018-01-10 03:00:00 7.9 9 Sur 13 Sur 0.2 -- -- 89
2018-01-10 02:00:00 7.7 8 Sur 13 Sur 0.4 -- -- 88
2018-01-10 01:00:00 7.7 7 Sur 12 Sudeste 1 -- -- 87
2018-01-10 00:00:00 7.9 2 Sudoeste 9 Sudeste 0.2 -- -- 79
2018-01-09 23:00:00 7.6 6 Sur 12 Sur 0 -- -- 73
2018-01-09 22:00:00 6.2 4 Sur 8 Sur 0 -- -- 80
2018-01-09 21:00:00 6.3 0 Calma 10 Oeste 0 -- -- 79
2018-01-09 20:00:00 6 4 Sur 6 Sudeste 0 -- -- 78
2018-01-09 19:00:00 8.4 5 Sudeste 13 Noroeste 0 -- -- 67
2018-01-09 18:00:00 10.7 9 Noroeste 22 Noroeste 0 -- -- 55
2018-01-09 17:00:00 13.1 14 Noroeste 31 Noroeste 0 -- -- 46
2018-01-09 16:00:00 15.3 13 Noroeste 27 Oeste 0 -- -- 41
2018-01-09 15:00:00 15.7 9 Noroeste 19 Oeste 0 -- -- 41
2018-01-09 14:00:00 15 3 Oeste 19 Oeste 0 -- -- 42
2018-01-09 13:00:00 14.6 9 Oeste 21 Sudoeste 0 -- -- 44
2018-01-09 12:00:00 13.2 10 Sudoeste 19 Sudoeste 0 -- -- 48
2018-01-09 11:00:00 10.6 5 Sur 10 Sur 0 -- -- 59
2018-01-09 10:00:00 7.6 7 Sur 11 Sur 0 -- -- 69
2018-01-09 09:00:00 3.4 5 Sur 12 Sur 0 -- -- 84
2018-01-09 08:00:00 3 8 Sur 12 Sur 0 -- -- 83
2018-01-09 07:00:00 3.4 8 Sur 13 Sur 0 -- -- 81
2018-01-09 06:00:00 4.3 9 Sur 13 Sur 0 -- -- 78
2018-01-09 05:00:00 4.3 8 Sur 19 Sur 0 -- -- 79
2018-01-09 04:00:00 4 6 Sur 14 Sur 0 -- -- 80
2018-01-09 03:00:00 3.6 4 Sur 12 Sur 0 -- -- 82
2018-01-09 02:00:00 4.1 7 Sur 14 Sur 0 -- -- 83
2018-01-09 01:00:00 5 10 Sur 15 Sur 0 -- -- 79
2018-01-09 00:00:00 5.5 12 Sur 17 Sur 0 -- -- 80
2018-01-08 23:00:00 5.8 10 Sur 14 Sur 0 -- -- 80
2018-01-08 22:00:00 5.6 5 Sur 14 Sur 0 -- -- 87
2018-01-08 21:00:00 5.1 4 Sudoeste 6 Sudoeste 0 -- -- 86
2018-01-08 20:00:00 7.3 3 Sudeste 9 Sudeste 0 -- -- 81
2018-01-08 19:00:00 10 7 Sur 17 Sudeste 0 -- -- 76
2018-01-08 18:00:00 11.9 6 Sudeste 10 Sudeste 0 -- -- 66
2018-01-08 17:00:00 15.1 3 Este 9 Oeste 0 -- -- 50
2018-01-08 16:00:00 15.4 4 Sudoeste 9 Sudoeste 0 -- -- 48
2018-01-08 15:00:00 15.2 7 Oeste 12 Oeste 0 -- -- 49
2018-01-08 14:00:00 14.3 4 Norte 9 Norte 0 -- -- 59
2018-01-08 13:00:00 13.4 3 Sudeste 9 Sudoeste 0 -- -- 63
2018-01-08 12:00:00 11.5 6 Oeste 11 Sur 0 -- -- 69
2018-01-08 11:00:00 8.5 7 Sur 13 Sur 0 -- -- 77
2018-01-08 10:00:00 5.1 6 Sur 10 Sur 0 -- -- 94
2018-01-08 09:00:00 2.8 5 Sur 12 Sur 0 -- -- 94
2018-01-08 08:00:00 2.3 6 Sur 10 Sur 0 -- -- 94
2018-01-08 07:00:00 1.9 5 Sur 8 Sur 0 -- -- 94
2018-01-08 06:00:00 2.4 3 Sur 10 Sur 0 -- -- 93
2018-01-08 05:00:00 2.3 6 Sur 9 Sudeste 0 -- -- 93
2018-01-08 04:00:00 2.5 3 Sur 8 Sudoeste 0 -- -- 90
2018-01-08 03:00:00 3.9 3 Sudoeste 9 Sur 0 -- -- 89
2018-01-08 02:00:00 4.7 4 Sur 7 Sudoeste 0 -- -- 88
2018-01-08 01:00:00 5.5 3 Sudoeste 9 Sur 0 -- -- 87
2018-01-08 00:00:00 5.5 6 Sur 10 Sur 0 -- -- 89
2018-01-07 23:00:00 5.8 3 Sudoeste 7 Sur 0 -- -- 86
2018-01-07 22:00:00 7 5 Sur 9 Sur 0 -- -- 84
2018-01-07 21:00:00 6.9 3 Sudeste 6 Sur 0 -- -- 86
2018-01-07 20:00:00 7.8 0 Calma 8 Norte 0 -- -- 78
2018-01-07 19:00:00 9.8 6 Norte 12 Este 0 -- -- 71
2018-01-07 18:00:00 10.7 9 Este 20 Nordeste 0 -- -- 66
2018-01-07 17:00:00 12.2 10 Este 21 Nordeste 0 -- -- 56
2018-01-07 16:00:00 13.9 13 Nordeste 23 Nordeste 0 -- -- 52
2018-01-07 15:00:00 14.2 7 Nordeste 15 Nordeste 0 -- -- 50
2018-01-07 14:00:00 14 5 Noroeste 13 Noroeste 0 -- -- 48
2018-01-07 13:00:00 13.5 5 Oeste 17 Sudoeste 0 -- -- 49
2018-01-07 12:00:00 12.6 5 Oeste 13 Oeste 0 -- -- 55
2018-01-07 11:00:00 10.7 8 Sudoeste 13 Sur 0 -- -- 64
2018-01-07 10:00:00 8.4 5 Sur 13 Sur 0 -- -- 73
2018-01-07 09:00:00 4.6 9 Sur 12 Sur 0 -- -- 86
2018-01-07 08:00:00 4.9 8 Sudeste 16 Sur 0 -- -- 83
2018-01-07 07:00:00 5.1 8 Sur 15 Sur 0 -- -- 84
2018-01-07 06:00:00 4.2 5 Sur 11 Sudoeste 0 -- -- 84
2018-01-07 05:00:00 6 6 Sudoeste 15 Sudoeste 0 -- -- 77
2018-01-07 04:00:00 6.2 10 Sur 19 Sur 0 -- -- 78
2018-01-07 03:00:00 6.1 8 Sur 17 Sur 0 -- -- 81
2018-01-07 02:00:00 7.1 7 Sur 18 Sur 0 -- -- 78
2018-01-07 01:00:00 8.3 8 Sudoeste 21 Sudoeste 0 -- -- 75
2018-01-07 00:00:00 8 6 Sur 14 Sudoeste 0 -- -- 82
2018-01-06 23:00:00 8.1 5 Sudoeste 13 Sur 0 -- -- 81
2018-01-06 22:00:00 8.5 5 Sudoeste 21 Oeste 0 -- -- 78
2018-01-06 21:00:00 8.8 2 Sur 12 Oeste 0 -- -- 90
2018-01-06 20:00:00 9.1 3 Sur 12 Noroeste 0 -- -- 88
2018-01-06 19:00:00 11.2 3 Este 21 Oeste 1.6 -- -- 88
2018-01-06 18:00:00 12.8 5 Oeste 12 Sudoeste 0 -- -- 85
2018-01-06 17:00:00 13.5 6 Norte 14 Noroeste 0 -- -- 82
2018-01-06 16:00:00 14.4 5 Norte 12 Norte 0 -- -- 79
2018-01-06 15:00:00 14.7 5 Norte 16 Nordeste 0 -- -- 77
2018-01-06 14:00:00 15.1 9 Norte 18 Norte 0 -- -- 76
2018-01-06 13:00:00 13.8 3 Noroeste 10 Noroeste 0 -- -- 67
2018-01-06 12:00:00 11.4 3 Sur 9 Sudoeste 0 -- -- 67
2018-01-06 11:00:00 8.6 4 Sur 5 Sur 0 -- -- 79
2018-01-06 10:00:00 7 3 Sudoeste 8 Oeste 0 -- -- 83
2018-01-06 09:00:00 5.8 0 Calma 5 Sur 0 -- -- 86
2018-01-06 08:00:00 6.1 6 Sur 9 Sur 0 -- -- 85
2018-01-06 07:00:00 5.6 2 Sudoeste 6 Sur 0 -- -- 87
2018-01-06 06:00:00 4.8 2 Sudoeste 6 Sur 0 -- -- 88
2018-01-06 05:00:00 4.8 3 Sudoeste 6 Sudeste 0 -- -- 85
2018-01-06 04:00:00 6.2 2 Sudoeste 9 Sur 0 -- -- 78
2018-01-06 03:00:00 8.7 7 Sur 19 Sur 0 -- -- 70
2018-01-06 02:00:00 9.4 11 Sur 18 Sudeste 0 -- -- 69
2018-01-06 01:00:00 7.8 8 Sur 13 Sur 0 -- -- 76
2018-01-06 00:00:00 9.6 5 Sur 15 Sur 0 -- -- 68
2018-01-05 23:00:00 10.6 10 Sur 18 Sur 0 -- -- 66
2018-01-05 22:00:00 9.7 4 Sur 13 Sur 0 -- -- 69
2018-01-05 21:00:00 10.7 6 Sur 21 Oeste 0 -- -- 66
2018-01-05 20:00:00 14.1 10 Oeste 27 Oeste 0 -- -- 54
2018-01-05 19:00:00 14.8 7 Oeste 21 Oeste 0 -- -- 53
2018-01-05 18:00:00 16.1 13 Oeste 30 Oeste 0 -- -- 48
2018-01-05 17:00:00 18.4 15 Oeste 33 Oeste 0 -- -- 44
2018-01-05 16:00:00 19.7 14 Oeste 32 Oeste 0 -- -- 40
2018-01-05 15:00:00 20.4 15 Oeste 31 Oeste 0 -- -- 41
2018-01-05 14:00:00 20.4 19 Oeste 35 Oeste 0 -- -- 40
2018-01-05 13:00:00 20.2 14 Oeste 28 Sudoeste 0 -- -- 43
2018-01-05 12:00:00 19.2 11 Oeste 32 Sudoeste 0 -- -- 45
2018-01-05 11:00:00 17.5 14 Sudoeste 23 Oeste 0 -- -- 49
2018-01-05 10:00:00 15.1 8 Sudoeste 14 Sudoeste 0 -- -- 60
2018-01-05 09:00:00 11.2 8 Sur 20 Sudoeste 0 -- -- 72
2018-01-05 08:00:00 9.9 5 Sudoeste 15 Sudeste 0 -- -- 76
2018-01-05 07:00:00 11.5 6 Sur 17 Sur 0 -- -- 70
2018-01-05 06:00:00 10.8 10 Sur 18 Sur 0 -- -- 74
2018-01-05 05:00:00 9.4 5 Sur 9 Sudoeste 0 -- -- 79
2018-01-05 04:00:00 11.3 6 Sudoeste 14 Sudoeste 0 -- -- 72
2018-01-05 03:00:00 12.1 8 Sudoeste 17 Sudoeste 0 -- -- 70
2018-01-05 02:00:00 12.6 10 Oeste 15 Sudoeste 0 -- -- 69
2018-01-05 01:00:00 13.7 6 Sudoeste 26 Oeste 0 -- -- 67
2018-01-05 00:00:00 14.7 13 Sudoeste 29 Sur 0 -- -- 64
2018-01-04 23:00:00 13.9 9 Sudeste 31 Sudoeste 0 -- -- 68
2018-01-04 22:00:00 14.7 7 Sur 29 Sudoeste 0 -- -- 67
2018-01-04 21:00:00 15.5 8 Sur 31 Oeste 0 -- -- 65
2018-01-04 20:00:00 15.6 12 Sudoeste 26 Oeste 0 -- -- 65
2018-01-04 19:00:00 16.1 13 Sudoeste 29 Oeste 0 -- -- 64
2018-01-04 18:00:00 17.2 12 Oeste 25 Oeste 0 -- -- 60
2018-01-04 17:00:00 19.9 10 Oeste 30 Sudoeste 0 -- -- 53
2018-01-04 16:00:00 20.8 13 Oeste 31 Oeste 0 -- -- 52
2018-01-04 15:00:00 21.1 16 Oeste 34 Noroeste 0 -- -- 51
2018-01-04 14:00:00 21.2 19 Oeste 38 Oeste 0 -- -- 52
2018-01-04 13:00:00 21.1 15 Oeste 36 Sudoeste 0 -- -- 52
2018-01-04 12:00:00 19.8 21 Oeste 31 Oeste 0 -- -- 57
2018-01-04 11:00:00 18.9 12 Sur 28 Sudoeste 0 -- -- 59
2018-01-04 10:00:00 17 10 Sudoeste 30 Oeste 0 -- -- 65
2018-01-04 09:00:00 15.3 17 Sudoeste 31 Sudoeste 0 -- -- 70
2018-01-04 08:00:00 15 13 Sur 30 Sur 0 -- -- 71
2018-01-04 07:00:00 14.5 9 Sudoeste 18 Sudoeste 0 -- -- 74
2018-01-04 06:00:00 13.7 6 Sudoeste 18 Oeste 0 -- -- 76
2018-01-04 05:00:00 14.1 6 Sudoeste 26 Sudoeste 0 -- -- 75
2018-01-04 04:00:00 13.7 6 Sudoeste 16 Sur 0 -- -- 76
2018-01-04 03:00:00 14.6 9 Sudoeste 23 Sudoeste 0 -- -- 72
2018-01-04 02:00:00 15.6 13 Sudoeste 28 Oeste 0 -- -- 69
2018-01-04 01:00:00 14.5 9 Sudoeste 18 Oeste 0 -- -- 73
2018-01-04 00:00:00 14.2 6 Sudoeste 20 Sur 0 -- -- 73
2018-01-03 23:00:00 15 13 Sur 22 Sur 0 -- -- 71
2018-01-03 22:00:00 14.1 11 Sur 21 Sur 0 -- -- 74
2018-01-03 21:00:00 14.4 10 Sur 19 Sur 0 -- -- 71
2018-01-03 20:00:00 15.3 9 Sur 22 Oeste 0 -- -- 67
2018-01-03 19:00:00 16.3 9 Sudoeste 22 Sudoeste 0 -- -- 64
2018-01-03 18:00:00 17.9 12 Oeste 26 Oeste 0 -- -- 59
2018-01-03 17:00:00 19.9 12 Sudoeste 28 Sudoeste 0 -- -- 53
2018-01-03 16:00:00 20.8 11 Oeste 25 Noroeste 0 -- -- 52
2018-01-03 15:00:00 20.6 10 Sudoeste 30 Oeste 0 -- -- 53
2018-01-03 14:00:00 20.1 9 Oeste 30 Sudoeste 0 -- -- 55
2018-01-03 13:00:00 18.9 11 Sudoeste 28 Oeste 0 -- -- 57
2018-01-03 12:00:00 18.3 14 Sudoeste 26 Sudoeste 0 -- -- 58
2018-01-03 11:00:00 17.6 12 Sudoeste 21 Sur 0 -- -- 60
2018-01-03 10:00:00 16 10 Sudoeste 21 Sudoeste 0 -- -- 64
2018-01-03 09:00:00 12.7 8 Sudoeste 29 Oeste 0 -- -- 74
2018-01-03 08:00:00 13.1 12 Sudoeste 25 Sudoeste 0 -- -- 72
2018-01-03 07:00:00 13.2 10 Sudoeste 24 Sudoeste 0 -- -- 72
2018-01-03 06:00:00 12.9 9 Sudoeste 18 Sur 0 -- -- 73
2018-01-03 05:00:00 12.9 11 Sur 19 Sur 0 -- -- 72
2018-01-03 04:00:00 13.3 9 Sudoeste 28 Oeste 0 -- -- 70
2018-01-03 03:00:00 13.5 10 Sudoeste 21 Oeste 0 -- -- 69
2018-01-03 02:00:00 14.2 9 Sudoeste 27 Sudoeste 0 -- -- 65
2018-01-03 01:00:00 15.1 12 Sudoeste 32 Oeste 0 -- -- 60
2018-01-03 00:00:00 14.5 8 Sudoeste 29 Sudoeste 0 -- -- 61
2018-01-02 23:00:00 14.8 8 Oeste 18 Oeste 0 -- -- 58
2018-01-02 22:00:00 14.5 10 Oeste 22 Noroeste 0 -- -- 59
2018-01-02 21:00:00 15 8 Sudoeste 25 Oeste 0 -- -- 59
2018-01-02 20:00:00 14.8 7 Sudoeste 18 Oeste 0 -- -- 59
2018-01-02 19:00:00 15.8 10 Sudoeste 23 Sudoeste 0 -- -- 56
2018-01-02 18:00:00 17 7 Sudoeste 33 Oeste 0 -- -- 50
2018-01-02 17:00:00 18.8 11 Oeste 32 Oeste 0 -- -- 46
2018-01-02 16:00:00 20.2 15 Oeste 31 Oeste 0 -- -- 43
2018-01-02 15:00:00 19.8 13 Oeste 29 Oeste 0 -- -- 43
2018-01-02 14:00:00 18.3 13 Oeste 33 Oeste 0 -- -- 46
2018-01-02 13:00:00 18 13 Oeste 34 Oeste 0 -- -- 47
2018-01-02 12:00:00 16.7 13 Oeste 29 Oeste 0 -- -- 49
2018-01-02 11:00:00 16.2 17 Oeste 32 Oeste 0 -- -- 52
2018-01-02 10:00:00 13.9 15 Oeste 31 Oeste 0 -- -- 59
2018-01-02 09:00:00 10.9 6 Sudoeste 14 Sudoeste 0 -- -- 69
2018-01-02 08:00:00 11.1 9 Sudoeste 23 Noroeste 0 -- -- 67
2018-01-02 07:00:00 11.1 8 Sudoeste 23 Oeste 0 -- -- 68
2018-01-02 06:00:00 11.7 10 Sudoeste 30 Sudoeste 0 -- -- 67
2018-01-02 05:00:00 11.5 8 Sudoeste 20 Sudoeste 0 -- -- 67
2018-01-02 04:00:00 12.1 9 Sudoeste 27 Oeste 0 -- -- 66
2018-01-02 03:00:00 12.2 12 Sudoeste 29 Oeste 0 -- -- 64
2018-01-02 02:00:00 12 10 Oeste 27 Noroeste 0 -- -- 64
2018-01-02 01:00:00 12.7 13 Oeste 26 Oeste 0 -- -- 61
2018-01-02 00:00:00 13.4 9 Oeste 36 Oeste 0 -- -- 57
2018-01-01 23:00:00 12.9 5 Sur 14 Oeste 0 -- -- 53
2018-01-01 22:00:00 13.1 4 Sudoeste 28 Noroeste 0 -- -- 48
2018-01-01 21:00:00 12.6 5 Sudeste 27 Sudoeste 0 -- -- 47
2018-01-01 20:00:00 14.2 12 Oeste 44 Oeste 0 -- -- 40
2018-01-01 19:00:00 14.8 22 Oeste 38 Oeste 0 -- -- 38
2018-01-01 18:00:00 15.6 13 Oeste 34 Oeste 0 -- -- 31
2018-01-01 17:00:00 17.7 18 Oeste 36 Sudoeste 0 -- -- 27
2018-01-01 16:00:00 18 23 Oeste 39 Oeste 0 -- -- 28
2018-01-01 15:00:00 18.6 19 Oeste 40 Oeste 0 -- -- 30
2018-01-01 14:00:00 19.6 17 Oeste 33 Oeste 0 -- -- 29
2018-01-01 13:00:00 17.8 13 Oeste 25 Noroeste 0 -- -- 39
2018-01-01 12:00:00 16.7 13 Oeste 34 Sudoeste 0 -- -- 39
2018-01-01 11:00:00 15.1 14 Sudoeste 24 Sudoeste 0 -- -- 40
2018-01-01 10:00:00 12.4 12 Sur 18 Sur 0 -- -- 48
2018-01-01 09:00:00 8.7 6 Sudoeste 14 Sur 0 -- -- 56
2018-01-01 08:00:00 9.3 8 Sur 23 Noroeste 0 -- -- 55
2018-01-01 07:00:00 10.1 10 Oeste 23 Oeste 0 -- -- 50
2018-01-01 06:00:00 10.6 6 Sudoeste 24 Oeste 0 -- -- 50
2018-01-01 05:00:00 11.1 14 Oeste 28 Noroeste 0 -- -- 51
2018-01-01 04:00:00 11.5 15 Oeste 33 Oeste 0 -- -- 49
2018-01-01 03:00:00 12 14 Oeste 33 Oeste 0 -- -- 55
2018-01-01 02:00:00 12.7 14 Oeste 40 Oeste 0 -- -- 56
2018-01-01 01:00:00 13.3 18 Oeste 42 Noroeste 0 -- -- 57
2018-01-01 00:00:00 14.5 19 Oeste 41 Oeste 0 -- -- 56
2017-12-31 23:00:00 16.1 16 Oeste 51 Oeste 0 -- -- 56
2017-12-31 22:00:00 15.9 12 Oeste 29 Oeste 0 -- -- 56
2017-12-31 21:00:00 16.2 9 Sudoeste 18 Oeste 0 -- -- 53
2017-12-31 20:00:00 16.4 15 Oeste 29 Oeste 0 -- -- 51
2017-12-31 19:00:00 16.5 13 Oeste 39 Oeste 0 -- -- 55
2017-12-31 18:00:00 17.6 15 Noroeste 31 Oeste 0 -- -- 56
2017-12-31 17:00:00 18.6 16 Oeste 35 Oeste 0 -- -- 52
2017-12-31 16:00:00 19.9 22 Oeste 42 Oeste 0 -- -- 49
2017-12-31 15:00:00 19.9 18 Oeste 34 Oeste 0 -- -- 49
2017-12-31 14:00:00 19.4 15 Noroeste 28 Oeste 0 -- -- 52
2017-12-31 13:00:00 18.9 6 Sur 16 Sudoeste 0 -- -- 54
2017-12-31 12:00:00 17 9 Sudoeste 15 Sudoeste 0 -- -- 59
2017-12-31 11:00:00 14.2 9 Sur 15 Sur 0 -- -- 68
2017-12-31 10:00:00 10.5 4 Sur 10 Sur 0 -- -- 84
2017-12-31 09:00:00 6.8 5 Sur 10 Sur 0 -- -- 92
2017-12-31 08:00:00 6.9 5 Sudoeste 8 Sur 0 -- -- 87
2017-12-31 07:00:00 8.9 4 Sudoeste 13 Sudeste 0 -- -- 82
2017-12-31 06:00:00 9.1 6 Sur 17 Sur 0 -- -- 83
2017-12-31 05:00:00 8.7 7 Sur 10 Sur 0 -- -- 84
2017-12-31 04:00:00 9.2 6 Sur 11 Sur 0 -- -- 82
2017-12-31 03:00:00 9.2 5 Sur 13 Sur 0 -- -- 82
2017-12-31 02:00:00 10.5 10 Sur 15 Sur 0 -- -- 80
2017-12-31 01:00:00 11.1 9 Sur 15 Sudeste 0 -- -- 78